Latest Weather Observations for Territory Grape Farm

IDD60801

Issued at 10:01 pm CST Wednesday 12 August 2020 (issued every 10 minutes, with the page automatically refreshed every 10 minutes)

About weather observations | Map of weather stations | Latest weather observations for NT | Other Formats
Station Details ID: 015643 Name: TERRITORY GRAPE FARM Lat: -22.45 Lon: 133.64 Height: 565.6 m
Data from the previous 72 hours. | See also: Recent months at Territory Grape Farm
Date/Time
CST
Temp
°C
App
Temp
°C
Dew
Point
°C
Rel
Hum
%
Delta-T
°C
Wind Press
QNH
hPa
Press
MSL
hPa
Rain since
9am
mm
Dir  Spd
km/h
Gust
km/h
Spd
kts
Gust
kts
12/10:00pm 18.7 16.0 2.9 35 7.5 SSW 6 6 3 3 1014.5 1013.1 0.0
12/09:30pm 20.3 17.6 3.9 34 8.1 SSW 7 9 4 5 1014.5 1013.1 0.0
12/09:00pm 20.7 17.9 5.1 36 7.9 SSW 9 11 5 6 1014.4 1013.0 0.0
12/08:30pm 19.4 16.8 3.2 34 7.8 WSW 6 7 3 4 1014.4 1013.0 0.0
12/08:00pm 20.1 17.8 2.5 31 8.4 W 4 7 2 4 1014.0 1012.7 0.0
12/07:30pm 22.1 20.0 3.7 30 9.1 WNW 4 4 2 2 1013.4 1012.0 0.0
12/07:00pm 23.1 21.3 3.6 28 9.7 WNW 2 4 1 2 1013.1 1011.7 0.0
12/06:30pm 25.1 22.6 3.7 25 10.9 WNW 6 9 3 5 1012.8 1011.4 0.0
12/06:00pm 27.1 23.6 3.6 22 12.1 WNW 11 20 6 11 1012.4 1011.1 0.0
12/05:30pm 28.1 24.4 4.4 22 12.4 WNW 13 26 7 14 1012.3 1011.0 0.0
12/05:00pm 28.8 24.7 4.3 21 12.8 WNW 15 28 8 15 1012.3 1011.0 0.0
12/04:30pm 28.5 24.2 5.4 23 12.3 WNW 17 26 9 14 1012.4 1011.1 0.0
12/04:00pm 29.1 23.8 5.2 22 12.7 W 22 35 12 19 1012.6 1011.2 0.0
12/03:30pm 28.7 23.9 5.5 23 12.4 WNW 20 33 11 18 1012.8 1011.4 0.0
12/03:00pm 28.6 24.1 6.1 24 12.1 NW 19 32 10 17 1013.1 1011.7 0.0
12/02:30pm 28.2 24.3 6.9 26 11.6 W 17 30 9 16 1013.3 1011.9 0.0
12/02:00pm 28.1 23.6 6.8 26 11.6 WNW 20 35 11 19 1013.9 1012.6 0.0
12/01:30pm 27.4 23.9 7.3 28 11.0 WNW 15 32 8 17 1014.6 1013.2 0.0
12/01:00pm 27.0 22.4 8.0 30 10.5 W 22 33 12 18 1015.1 1013.8 0.0
12/12:30pm 25.8 22.2 8.3 33 9.7 WSW 17 28 9 15 1015.5 1014.2 0.0
12/12:00pm 24.5 21.6 8.0 35 9.0 WSW 13 19 7 10 1016.0 1014.7 0.0
12/11:30am 24.2 21.8 8.6 37 8.6 WSW 11 20 6 11 1016.4 1015.0 0.0
12/11:00am 23.6 22.2 8.8 39 8.1 SW 6 13 3 7 1017.2 1015.9 0.0
12/10:30am 22.2 20.8 9.0 43 7.2 SSW 6 11 3 6 1017.7 1016.4 0.0
12/10:00am 21.0 19.3 9.9 49 6.1 S 9 13 5 7 1017.7 1016.4 0.0
12/09:30am 20.2 19.6 11.7 58 4.8 SSW 6 11 3 6 1017.7 1016.4 0.0
12/09:00am 18.9 19.1 13.1 69 3.4 SW 4 6 2 3 1017.6 1016.3 0.0
12/08:30am 17.7 17.8 12.8 73 2.8 SW 4 7 2 4 1017.1 1015.8 0.0
12/08:00am 16.1 15.7 12.3 78 2.1 SSW 6 7 3 4 1016.6 1015.3 0.0
12/07:30am 12.0 11.7 8.5 79 1.8 CALM 0 0 0 0 1016.1 1014.8 0.0
12/07:00am 10.8 10.2 7.5 80 1.6 CALM 0 0 0 0 1015.9 1014.6 0.0
12/06:30am 10.3 9.5 6.6 78 1.8 CALM 0 0 0 0 1015.7 1014.4 0.0
12/06:00am 11.4 11.1 8.8 84 1.3 CALM 0 0 0 0 1015.1 1013.8 0.0
12/05:30am 12.0 11.7 10.1 88 1.0 W 2 4 1 2 1014.8 1013.4 0.0
12/05:00am 11.3 10.7 7.6 78 1.8 CALM 0 0 0 0 1014.7 1013.3 0.0
12/04:30am 11.3 10.3 7.4 77 1.9 N 2 4 1 2 1014.5 1013.1 0.0
12/04:00am 12.1 11.5 8.8 80 1.7 NNE 2 2 1 1 1014.1 1012.8 0.0
12/03:30am 12.3 11.7 8.8 79 1.8 N 2 4 1 2 1014.4 1013.0 0.0
12/03:00am 12.8 12.6 9.1 78 1.9 CALM 0 0 0 0 1014.4 1013.0 0.0
12/02:30am 12.7 12.1 9.0 78 1.9 N 2 2 1 1 1014.4 1013.0 0.0
12/02:00am 12.8 12.4 8.1 73 2.4 CALM 0 2 0 1 1014.5 1013.1 0.0
12/01:30am 13.7 12.7 8.7 72 2.6 NW 4 4 2 2 1014.8 1013.4 0.0
12/01:00am 15.0 14.1 10.8 76 2.3 WSW 6 7 3 4 1015.0 1013.6 0.0
12/12:30am 15.2 14.9 10.0 71 2.8 WSW 2 2 1 1 1015.0 1013.6 0.0
12/12:00am 15.8 15.3 9.5 66 3.4 WSW 2 2 1 1 1015.0 1013.6 0.0
 
Date/Time
CST
Temp
°C
App
Temp
°C
Dew
Point
°C
Rel
Hum
%
Delta-T
°C
Wind Press
QNH
hPa
Press
MSL
hPa
Rain since
9am
mm
Dir  Spd
km/h
Gust
km/h
Spd
kts
Gust
kts
11/11:30pm 16.3 16.6 10.8 70 3.0 CALM 0 0 0 0 1014.9 1013.5 0.0
11/11:00pm 16.2 15.9 8.7 61 4.0 CALM 0 0 0 0 1014.9 1013.5 0.0
11/10:30pm 17.8 16.9 10.7 63 3.9 SW 6 6 3 3 1014.9 1013.5 0.0
11/10:00pm 18.0 16.8 10.4 61 4.2 SW 7 7 4 4 1014.8 1013.4 0.0
11/09:30pm 19.4 18.0 10.9 58 4.8 SW 9 11 5 6 1014.8 1013.4 0.0
11/09:00pm 20.3 18.6 11.2 56 5.1 SW 11 13 6 7 1014.7 1013.3 0.0
11/08:30pm 21.0 19.1 11.9 56 5.2 SW 13 17 7 9 1014.4 1013.0 0.0
11/08:00pm 21.6 19.6 11.6 53 5.7 SW 13 17 7 9 1013.9 1012.6 0.0
11/07:30pm 22.3 19.4 11.1 49 6.4 SW 17 20 9 11 1013.3 1011.9 0.0
11/07:00pm 23.3 20.5 10.0 43 7.5 SW 15 20 8 11 1012.7 1011.3 0.0
11/06:30pm 24.8 21.5 7.9 34 9.2 WSW 15 24 8 13 1011.9 1010.5 0.0
11/06:00pm 26.0 21.5 8.5 33 9.7 WNW 22 30 12 16 1011.6 1010.2 0.0
11/05:30pm 27.1 22.2 8.5 31 10.4 NW 24 35 13 19 1011.5 1010.1 0.0
11/05:00pm 27.4 22.6 7.3 28 11.0 WNW 22 30 12 16 1011.5 1010.1 0.0
11/04:30pm 27.4 22.1 6.8 27 11.2 WNW 24 41 13 22 1011.4 1010.0 0.0
11/04:00pm 28.4 22.3 6.5 25 11.9 WNW 28 41 15 22 1011.4 1010.0 0.0
11/03:44pm 28.1 21.9 6.2 25 11.8 WNW 28 50 15 27 1011.1 1009.7 0.0
11/03:30pm 28.6 23.7 6.7 25 12.0 WNW 22 32 12 17 1011.4 1010.0 0.0
11/03:00pm 27.9 22.7 5.5 24 11.9 WNW 22 33 12 18 1011.7 1010.3 0.0
11/02:30pm 26.6 20.8 4.4 24 11.5 WNW 24 37 13 20 1012.1 1010.8 0.0
11/02:00pm 27.4 22.4 4.5 23 11.9 NW 20 32 11 17 1012.8 1011.4 0.0
11/01:30pm 26.6 19.7 0.4 18 12.6 WNW 26 39 14 21 1013.2 1011.8 0.0
11/01:00pm 27.0 19.9 -0.9 16 13.2 NW 26 39 14 21 1013.8 1012.5 0.0
11/12:30pm 26.3 19.4 0.1 18 12.5 WNW 26 41 14 22 1014.5 1013.1 0.0
11/12:00pm 25.6 17.9 -2.9 15 12.9 WNW 28 39 15 21 1015.0 1013.6 0.0
11/11:30am 24.9 16.5 -2.6 16 12.4 NW 32 44 17 24 1015.2 1013.9 0.0
11/11:00am 24.3 16.2 -3.1 16 12.2 NNW 30 41 16 22 1015.5 1014.2 0.0
11/10:30am 22.4 16.2 -3.1 18 11.1 NNW 20 24 11 13 1016.0 1014.7 0.0
11/10:00am 21.9 15.0 -2.7 19 10.8 N 24 35 13 19 1015.8 1014.5 0.0
11/09:30am 19.6 12.2 -3.3 21 9.7 N 26 37 14 20 1015.8 1014.5 0.0
11/09:00am 17.2 11.0 -3.0 25 8.4 N 20 26 11 14 1015.8 1014.5 0.0
11/08:30am 14.9 10.8 -3.0 29 7.3 NNW 9 13 5 7 1015.9 1014.6 0.0
11/08:00am 12.3 8.6 -3.1 34 6.1 NW 7 9 4 5 1015.8 1014.5 0.0
11/07:30am 8.0 4.8 -3.8 43 4.4 NW 4 6 2 3 1015.4 1014.1 0.0
11/07:00am 6.8 3.7 -2.9 50 3.6 N 4 6 2 3 1015.4 1014.1 0.0
11/06:30am 7.5 4.6 -4.2 43 4.3 NNW 2 4 1 2 1015.3 1014.0 0.0
11/06:00am 8.8 5.0 -3.4 42 4.6 N 7 9 4 5 1014.9 1013.5 0.0
11/05:30am 7.8 3.2 -3.7 44 4.3 NNE 11 11 6 6 1014.6 1013.2 0.0
11/05:00am 8.0 4.4 -3.8 43 4.4 NE 6 6 3 3 1014.6 1013.2 0.0
11/04:30am 8.4 4.7 -4.4 40 4.7 NE 6 6 3 3 1014.6 1013.2 0.0
11/04:00am 8.7 5.0 -2.6 45 4.4 ENE 7 7 4 4 1014.6 1013.2 0.0
11/03:30am 9.4 5.7 -4.2 38 5.1 NE 6 6 3 3 1014.7 1013.3 0.0
11/03:00am 10.9 6.7 -3.9 35 5.7 NE 9 11 5 6 1015.0 1013.6 0.0
11/02:30am 11.2 7.0 -3.7 35 5.8 NE 9 11 5 6 1015.3 1014.0 0.0
11/02:00am 11.6 7.8 -4.1 33 6.0 NE 7 9 4 5 1015.5 1014.2 0.0
11/01:30am 12.1 7.5 -4.1 32 6.3 NE 11 13 6 7 1015.5 1014.2 0.0
11/01:00am 12.2 7.6 -4.0 32 6.3 NE 11 13 6 7 1015.9 1014.6 0.0
11/12:30am 12.1 7.5 -4.5 31 6.4 NNE 11 11 6 6 1016.6 1015.3 0.0
11/12:00am 13.4 8.4 -4.2 29 6.9 NNE 13 15 7 8 1016.7 1015.4 0.0
 
Date/Time
CST
Temp
°C
App
Temp
°C
Dew
Point
°C
Rel
Hum
%
Delta-T
°C
Wind Press
QNH
hPa
Press
MSL
hPa
Rain since
9am
mm
Dir  Spd
km/h
Gust
km/h
Spd
kts
Gust
kts
10/11:30pm 13.3 8.2 -4.8 28 7.0 NE 13 15 7 8 1016.8 1015.5 0.0
10/11:00pm 13.7 9.4 -4.9 27 7.2 NE 9 11 5 6 1016.8 1015.5 0.0
10/10:30pm 14.4 10.1 -4.8 26 7.5 NE 9 11 5 6 1016.6 1015.3 0.0
10/10:00pm 15.0 10.3 -4.8 25 7.8 NNE 11 11 6 6 1016.6 1015.3 0.0
10/09:30pm 15.5 10.8 -5.0 24 8.1 NNE 11 13 6 7 1016.6 1015.3 0.0
10/09:00pm 16.0 11.7 -5.1 23 8.3 NNE 9 11 5 6 1016.6 1015.3 0.0
10/08:30pm 16.5 11.8 -4.7 23 8.5 NNE 11 11 6 6 1016.4 1015.0 0.0
10/08:00pm 17.6 13.3 -5.0 21 9.1 NNE 9 11 5 6 1016.3 1014.9 0.0
10/07:30pm 18.4 14.1 -4.9 20 9.5 NNE 9 9 5 5 1015.8 1014.5 0.0
10/07:00pm 19.7 15.4 -4.5 19 10.0 NNE 9 9 5 5 1015.3 1014.0 0.0
10/06:30pm 21.2 16.9 -4.8 17 10.9 N 9 11 5 6 1015.2 1013.9 0.0
10/06:00pm 23.6 18.9 -5.4 14 12.3 N 11 17 6 9 1015.0 1013.6 0.0
10/05:30pm 24.7 20.0 -4.6 14 12.7 N 11 15 6 8 1015.0 1013.6 0.0
10/05:00pm 24.9 19.8 -5.4 13 13.0 N 13 22 7 12 1014.9 1013.5 0.0
10/04:30pm 25.3 20.7 -4.1 14 12.9 NNW 11 22 6 12 1014.9 1013.5 0.0
10/04:00pm 24.7 19.4 -3.6 15 12.5 N 15 20 8 11 1015.1 1013.8 0.0
10/03:30pm 25.4 19.8 -3.1 15 12.8 N 17 24 9 13 1015.2 1013.9 0.0
10/03:00pm 24.7 20.3 -2.8 16 12.3 NNW 11 20 6 11 1015.7 1014.4 0.0
10/02:30pm 24.2 19.8 -2.4 17 12.0 NNW 11 20 6 11 1016.1 1014.8 0.0
10/02:00pm 24.0 19.8 -1.0 19 11.5 N 11 19 6 10 1016.7 1015.4 0.0
10/01:30pm 22.9 19.1 -0.6 21 10.8 NNE 9 33 5 18 1017.1 1015.8 0.0
10/01:00pm 22.0 17.8 -0.7 22 10.4 NNE 11 19 6 10 1018.0 1016.7 0.0
10/12:30pm 20.9 16.4 -0.4 24 9.7 N 13 22 7 12 1018.6 1017.3 0.0
10/12:00pm 19.6 15.1 -0.4 26 9.0 NE 13 19 7 10 1019.2 1017.9 0.0
10/11:30am 18.5 13.6 -0.3 28 8.4 NNE 15 20 8 11 1019.8 1018.6 0.0
10/11:00am 17.7 12.9 -0.1 30 7.9 NE 15 22 8 12 1020.4 1019.1 0.0
10/10:30am 16.8 11.2 0.0 32 7.4 NE 19 26 10 14 1020.7 1019.4 0.0
10/10:00am 15.5 10.6 -0.3 34 6.9 NE 15 26 8 14 1021.0 1019.7 0.0
10/09:30am 14.1 8.6 0.4 39 6.0 NE 19 24 10 13 1021.2 1020.0 0.0
10/09:00am 12.4 7.6 -0.1 42 5.3 NE 15 20 8 11 1021.1 1019.8 0.0
10/08:30am 10.7 7.4 0.2 48 4.4 ENE 7 13 4 7 1021.0 1019.7 0.0
10/08:00am 6.8 4.7 -1.1 57 3.1 CALM 0 2 0 1 1021.2 1020.0 0.0
10/07:30am 3.9 0.4 -3.1 60 2.5 SW 6 6 3 3 1021.2 1020.0 0.0
10/07:00am 3.4 0.2 -3.8 59 2.5 SW 4 4 2 2 1020.9 1019.6 0.0
10/06:30am 4.1 1.4 -2.7 61 2.5 SW 2 2 1 1 1020.6 1019.3 0.0
10/06:00am 4.6 1.8 -2.9 58 2.7 SW 2 2 1 1 1020.3 1019.0 0.0
10/05:30am 5.3 2.0 -1.6 61 2.6 SW 6 6 3 3 1020.2 1018.9 0.0
10/05:00am 4.8 2.0 -3.7 54 3.1 SE 2 2 1 1 1019.8 1018.6 0.0
10/04:30am 7.2 3.9 -1.0 56 3.2 ESE 6 6 3 3 1019.5 1018.2 0.0
10/04:00am 7.5 4.2 -0.2 58 3.1 ESE 7 7 4 4 1019.6 1018.3 0.0
10/03:30am 7.6 4.3 0.1 59 3.0 ENE 7 7 4 4 1019.5 1018.2 0.0
10/03:00am 6.8 3.4 -1.8 54 3.3 NE 6 6 3 3 1019.7 1018.5 0.0
10/02:30am 7.6 5.1 -1.1 54 3.4 ENE 2 4 1 2 1019.7 1018.5 0.0
10/02:00am 8.6 5.4 -0.2 54 3.6 ENE 6 6 3 3 1019.8 1018.6 0.0
10/01:30am 9.2 5.8 -0.7 50 4.0 ENE 7 9 4 5 1019.8 1018.6 0.0
10/01:00am 9.7 5.8 0.9 54 3.7 E 11 13 6 7 1019.7 1018.5 0.0
10/12:30am 9.7 5.7 0.6 53 3.8 E 11 13 6 7 1019.8 1018.6 0.0
10/12:00am 10.3 6.3 0.3 50 4.2 E 11 13 6 7 1019.8 1018.6 0.0
 
Date/Time
CST
Temp
°C
App
Temp
°C
Dew
Point
°C
Rel
Hum
%
Delta-T
°C
Wind Press
QNH
hPa
Press
MSL
hPa
Rain since
9am
mm
Dir  Spd
km/h
Gust
km/h
Spd
kts
Gust
kts
09/11:30pm 10.3 6.2 -0.5 47 4.4 E 11 13 6 7 1019.8 1018.6 0.0
09/11:00pm 11.1 6.6 -0.1 46 4.7 ESE 13 13 7 7 1019.7 1018.5 0.0
09/10:30pm 12.5 7.9 -0.7 40 5.5 ESE 13 15 7 8 1019.7 1018.5 0.0

Other formats

Comma delimited format used in spreadsheet applications
http://www.bom.gov.au/fwo/IDD60801/IDD60801.94328.axf

JavaScript Object Notation format (JSON) in row-major order
http://www.bom.gov.au/fwo/IDD60801/IDD60801.94328.json

Data quality

Most of these data are generated automatically and are frequently updated. Quality checks on data are not normally performed. It is possible for incorrect values to appear. Refer to information at About Latest Weather Observations and please check the disclaimer before using these data.